createdAt,value
2019-05-30T00:01:00.053Z,102429.42
2019-05-30T00:03:29.337Z,102429.42
2019-05-30T00:05:58.774Z,102427.19
2019-05-30T00:08:28.339Z,102429.00
2019-05-30T00:10:58.529Z,102428.05
2019-05-30T00:13:27.974Z,102426.56
2019-05-30T00:15:58.665Z,102423.73
2019-05-30T00:18:28.087Z,102427.49
2019-05-30T00:20:58.738Z,102419.21
2019-05-30T00:23:28.292Z,102424.67
2019-05-30T00:25:57.617Z,102420.98
2019-05-30T00:28:27.470Z,102419.72
2019-05-30T00:30:58.250Z,102431.58
2019-05-30T00:33:27.542Z,102432.50
2019-05-30T00:35:57.666Z,102436.61
2019-05-30T00:38:27.245Z,102440.58
2019-05-30T00:40:57.781Z,102438.66
2019-05-30T00:43:27.432Z,102439.40
2019-05-30T00:45:57.932Z,102441.69
2019-05-30T00:48:27.332Z,102437.47
2019-05-30T00:50:58.261Z,102436.55
2019-05-30T00:53:27.716Z,102439.14
2019-05-30T00:55:57.125Z,102441.44
2019-05-30T00:58:26.947Z,102440.69
2019-05-30T01:00:56.810Z,102444.74
2019-05-30T01:03:26.215Z,102438.62
2019-05-30T01:05:56.678Z,102438.80
2019-05-30T01:08:26.109Z,102444.95
2019-05-30T01:10:56.868Z,102446.92
2019-05-30T01:13:26.346Z,102446.87
2019-05-30T01:15:56.857Z,102442.33
2019-05-30T01:18:26.260Z,102439.82
2019-05-30T01:20:57.016Z,102433.92
2019-05-30T01:23:26.469Z,102433.40
2019-05-30T01:25:57.233Z,102435.81
2019-05-30T01:28:26.971Z,102428.34
2019-05-30T01:31:00.297Z,102437.26
2019-05-30T01:33:27.303Z,102430.75
2019-05-30T01:35:57.769Z,102431.06
2019-05-30T01:38:27.363Z,102431.91
2019-05-30T01:40:57.685Z,102435.81
2019-05-30T01:43:27.429Z,102429.39
2019-05-30T01:45:58.029Z,102425.30
2019-05-30T01:48:30.945Z,102426.35
2019-05-30T01:51:00.411Z,102421.74
2019-05-30T01:53:29.728Z,102420.82
2019-05-30T01:56:00.690Z,102411.07
2019-05-30T01:58:30.247Z,102418.33
2019-05-30T02:01:16.338Z,102416.92
2019-05-30T02:03:31.150Z,102417.55
2019-05-30T02:06:01.035Z,102412.52
2019-05-30T02:08:30.419Z,102417.53
2019-05-30T02:11:01.294Z,102423.07
2019-05-30T02:13:30.680Z,102421.27
2019-05-30T02:15:59.964Z,102416.73
2019-05-30T02:18:30.119Z,102426.45
2019-05-30T02:20:59.589Z,102424.78
2019-05-30T02:23:28.894Z,102421.53
2019-05-30T02:25:59.969Z,102420.37
2019-05-30T02:28:29.654Z,102417.66
2019-05-30T02:31:00.510Z,102419.23
2019-05-30T02:33:29.830Z,102424.86
2019-05-30T02:36:01.019Z,102417.21
2019-05-30T02:38:30.586Z,102414.92
2019-05-30T02:41:01.292Z,102415.16
2019-05-30T02:43:31.633Z,102415.73
2019-05-30T02:46:01.064Z,102421.64
2019-05-30T02:48:30.485Z,102419.44
2019-05-30T02:51:01.001Z,102417.16
2019-05-30T02:53:30.319Z,102419.70
2019-05-30T02:56:01.309Z,102420.27
2019-05-30T02:58:31.284Z,102417.78
2019-05-30T03:01:01.945Z,102408.54
2019-05-30T03:03:31.697Z,102415.52
2019-05-30T03:06:01.919Z,102418.45
2019-05-30T03:08:31.747Z,102424.67
2019-05-30T03:11:02.412Z,102420.78
2019-05-30T03:13:33.425Z,102424.56
2019-05-30T03:16:04.509Z,102427.95
2019-05-30T03:18:34.108Z,102424.91
2019-05-30T03:21:05.453Z,102429.95
2019-05-30T03:23:34.617Z,102426.37
2019-05-30T03:26:04.926Z,102423.32
2019-05-30T03:28:35.324Z,102422.66
2019-05-30T03:31:14.695Z,102418.55
2019-05-30T03:33:42.389Z,102417.06
2019-05-30T03:36:19.984Z,102414.94
2019-05-30T03:38:41.549Z,102413.78
2019-05-30T03:41:12.133Z,102414.78
2019-05-30T03:43:41.453Z,102408.39
2019-05-30T03:46:16.202Z,102411.52
2019-05-30T03:48:47.855Z,102407.41
2019-05-30T03:51:20.106Z,102405.34
2019-05-30T03:53:50.682Z,102407.67
2019-05-30T03:56:23.972Z,102412.14
2019-05-30T03:59:03.099Z,102408.23
2019-05-30T04:01:56.465Z,102405.47
2019-05-30T04:04:29.463Z,102399.11
2019-05-30T04:07:03.693Z,102401.57
2019-05-30T04:09:35.290Z,102398.66
2019-05-30T04:12:16.731Z,102403.10
2019-05-30T04:14:49.162Z,102400.35
2019-05-30T04:17:19.969Z,102403.31
2019-05-30T04:19:49.393Z,102398.63
2019-05-30T04:22:19.622Z,102399.97
2019-05-30T04:24:49.227Z,102407.14
2019-05-30T04:27:18.721Z,102402.06
2019-05-30T04:29:48.148Z,102399.73
2019-05-30T04:32:18.774Z,102397.77
2019-05-30T04:34:48.102Z,102394.18
2019-05-30T04:37:18.939Z,102396.98
2019-05-30T04:39:48.684Z,102392.19
2019-05-30T04:42:20.608Z,102394.30
2019-05-30T04:44:50.066Z,102398.27
2019-05-30T04:47:20.806Z,102394.41
2019-05-30T04:49:50.328Z,102387.06
2019-05-30T04:52:24.086Z,102384.25
2019-05-30T04:54:51.457Z,102385.59
2019-05-30T04:57:25.747Z,102392.72
2019-05-30T04:59:52.195Z,102390.32
2019-05-30T05:02:23.288Z,102390.06
2019-05-30T05:04:53.396Z,102387.80
2019-05-30T05:07:22.760Z,102390.59
2019-05-30T05:09:52.092Z,102382.83
2019-05-30T05:12:22.413Z,102384.80
2019-05-30T05:14:51.824Z,102382.27
2019-05-30T05:17:21.292Z,102370.38
2019-05-30T05:19:50.854Z,102369.36
2019-05-30T05:22:21.158Z,102364.14
2019-05-30T05:24:50.705Z,102370.09
2019-05-30T05:27:20.154Z,102370.98
2019-05-30T05:29:49.491Z,102363.23
2019-05-30T05:32:18.963Z,102360.45
2019-05-30T05:34:51.819Z,102354.38
2019-05-30T05:37:19.354Z,102358.25
2019-05-30T05:39:49.013Z,102351.50
2019-05-30T05:42:18.350Z,102350.73
2019-05-30T05:44:47.680Z,102347.02
2019-05-30T05:47:18.378Z,102346.77
2019-05-30T05:49:47.735Z,102349.97
2019-05-30T05:52:17.057Z,102342.97
2019-05-30T05:54:46.738Z,102340.16
2019-05-30T05:57:16.736Z,102343.42
2019-05-30T05:59:45.989Z,102342.41
2019-05-30T06:02:17.541Z,102344.30
2019-05-30T06:04:47.144Z,102344.45
2019-05-30T06:07:16.448Z,102345.41
2019-05-30T06:09:48.620Z,102338.64
2019-05-30T06:12:17.957Z,102337.61
2019-05-30T06:14:47.282Z,102333.59
2019-05-30T06:17:17.360Z,102331.44
2019-05-30T06:19:47.069Z,102328.28
2019-05-30T06:22:17.395Z,102328.77
2019-05-30T06:24:47.126Z,102332.22
2019-05-30T06:27:17.717Z,102326.14
2019-05-30T06:29:47.078Z,102324.89
2019-05-30T06:32:16.973Z,102318.69
2019-05-30T06:34:46.328Z,102325.31
2019-05-30T06:37:15.631Z,102316.22
2019-05-30T06:39:45.420Z,102314.77
2019-05-30T06:42:14.779Z,102312.85
2019-05-30T06:44:44.121Z,102309.06
2019-05-30T06:47:13.926Z,102304.20
2019-05-30T06:49:43.232Z,102296.91
2019-05-30T06:52:12.555Z,102302.41
2019-05-30T06:54:42.483Z,102294.73
2019-05-30T06:57:11.768Z,102298.89
2019-05-30T06:59:41.151Z,102292.98
2019-05-30T07:02:11.536Z,102293.03
2019-05-30T07:04:51.333Z,102294.84
2019-05-30T07:07:12.762Z,102296.95
2019-05-30T07:09:42.299Z,102291.41
2019-05-30T07:12:12.102Z,102283.27
2019-05-30T07:14:42.145Z,102288.23
2019-05-30T07:17:11.533Z,102281.09
2019-05-30T07:19:40.835Z,102291.06
2019-05-30T07:22:10.727Z,102277.97
2019-05-30T07:24:40.426Z,102275.61
2019-05-30T07:27:09.721Z,102280.63
2019-05-30T07:29:39.458Z,102280.42
2019-05-30T07:32:09.028Z,102271.56
2019-05-30T07:34:38.357Z,102271.04
2019-05-30T07:37:09.230Z,102269.09
2019-05-30T07:39:38.640Z,102271.26
2019-05-30T07:42:07.931Z,102271.13
2019-05-30T07:44:37.389Z,102280.00
2019-05-30T07:47:06.756Z,102280.38
2019-05-30T07:49:36.139Z,102275.23
2019-05-30T07:52:05.641Z,102281.48
2019-05-30T07:54:35.203Z,102286.12
2019-05-30T07:57:04.604Z,102286.66
2019-05-30T07:59:34.606Z,102284.96
2019-05-30T08:02:04.379Z,102276.91
2019-05-30T08:04:34.131Z,102289.25
2019-05-30T08:07:03.638Z,102294.84
2019-05-30T08:09:33.111Z,102282.15
2019-05-30T08:12:02.418Z,102284.78
2019-05-30T08:14:33.307Z,102286.17
2019-05-30T08:17:02.658Z,102284.78
2019-05-30T08:19:32.786Z,102280.06
2019-05-30T08:22:03.047Z,102285.47
2019-05-30T08:24:32.413Z,102280.83
2019-05-30T08:27:01.759Z,102282.25
2019-05-30T08:29:32.109Z,102276.77
2019-05-30T08:32:01.932Z,102273.63
2019-05-30T08:34:32.395Z,102272.03
2019-05-30T08:37:02.267Z,102267.20
2019-05-30T08:39:32.971Z,102259.64
2019-05-30T08:42:02.283Z,102254.08
2019-05-30T08:44:31.697Z,102249.97
2019-05-30T08:47:01.183Z,102248.55
2019-05-30T08:49:30.508Z,102250.92
2019-05-30T08:51:59.994Z,102250.59
2019-05-30T08:54:30.262Z,102250.99
2019-05-30T08:56:59.626Z,102247.70
2019-05-30T08:59:30.256Z,102253.48
2019-05-30T09:01:59.667Z,102246.48
2019-05-30T09:04:29.001Z,102242.70
2019-05-30T09:06:58.400Z,102237.05
2019-05-30T09:09:27.850Z,102244.81
2019-05-30T09:11:57.164Z,102241.09
2019-05-30T09:14:26.650Z,102242.96
2019-05-30T09:16:57.078Z,102232.31
2019-05-30T09:19:26.479Z,102233.69
2019-05-30T09:21:56.288Z,102234.77
2019-05-30T09:24:25.902Z,102221.47
2019-05-30T09:26:55.271Z,102224.08
2019-05-30T09:29:25.018Z,102210.20
2019-05-30T09:31:54.399Z,102218.58
2019-05-30T09:34:23.714Z,102215.30
2019-05-30T09:36:53.225Z,102215.30
2019-05-30T09:39:22.568Z,102220.70
2019-05-30T09:41:51.950Z,102216.47
2019-05-30T09:44:21.478Z,102220.98
2019-05-30T09:46:50.973Z,102216.92
2019-05-30T09:49:20.283Z,102212.76
2019-05-30T09:51:51.105Z,102209.38
2019-05-30T09:54:20.628Z,102198.34
2019-05-30T09:56:51.092Z,102197.52
2019-05-30T09:59:20.766Z,102199.67
2019-05-30T10:01:50.295Z,102196.89
2019-05-30T10:04:19.694Z,102202.15
2019-05-30T10:06:49.149Z,102193.59
2019-05-30T10:09:18.595Z,102201.80
2019-05-30T10:11:47.900Z,102194.04
2019-05-30T10:14:17.342Z,102198.08
2019-05-30T10:16:50.663Z,102204.78
2019-05-30T10:19:18.032Z,102204.78
2019-05-30T10:21:47.315Z,102197.97
2019-05-30T10:24:16.684Z,102194.04
2019-05-30T10:26:47.167Z,102187.38
2019-05-30T10:29:16.496Z,102195.97
2019-05-30T10:31:46.493Z,102186.31
2019-05-30T10:34:16.074Z,102172.25
2019-05-30T10:36:47.137Z,102178.91
2019-05-30T10:39:16.604Z,102182.13
2019-05-30T10:41:47.480Z,102175.03
2019-05-30T10:44:16.882Z,102166.17
2019-05-30T10:46:47.563Z,102179.18
2019-05-30T10:49:31.525Z,102167.61
2019-05-30T10:51:49.639Z,102159.42
2019-05-30T10:54:19.141Z,102159.17
2019-05-30T10:56:49.863Z,102154.30
2019-05-30T10:59:19.272Z,102146.11
2019-05-30T11:01:50.217Z,102139.16
2019-05-30T11:04:19.714Z,102138.02
2019-05-30T11:07:10.391Z,102129.55
2019-05-30T11:09:33.481Z,102129.30
2019-05-30T11:12:02.994Z,102122.31
2019-05-30T11:14:32.272Z,102115.61
2019-05-30T11:17:01.577Z,102105.61
2019-05-30T11:19:31.269Z,102109.69
2019-05-30T11:22:00.597Z,102093.95
2019-05-30T11:24:29.888Z,102099.39
2019-05-30T11:27:00.142Z,102089.25
2019-05-30T11:29:29.474Z,102091.20
2019-05-30T11:31:59.098Z,102082.25
2019-05-30T11:34:28.846Z,102069.85
2019-05-30T11:36:59.344Z,102071.94
2019-05-30T11:39:29.569Z,102072.88
2019-05-30T11:41:59.552Z,102076.41
2019-05-30T11:44:28.884Z,102064.73
2019-05-30T11:46:58.220Z,102067.55
2019-05-30T11:49:27.698Z,102063.33
2019-05-30T11:51:57.893Z,102076.83
2019-05-30T11:54:27.286Z,102070.58
2019-05-30T11:56:58.142Z,102067.34
2019-05-30T11:59:27.432Z,102050.23
2019-05-30T12:01:56.742Z,102045.66
2019-05-30T12:04:26.240Z,102051.38
2019-05-30T12:06:56.749Z,102046.74
2019-05-30T12:09:26.337Z,102042.53
2019-05-30T12:11:59.217Z,102043.69
2019-05-30T12:14:28.645Z,102038.44
2019-05-30T12:16:58.023Z,102036.09
2019-05-30T12:19:28.022Z,102040.17
2019-05-30T12:21:57.689Z,102040.34
2019-05-30T12:24:27.037Z,102031.30
2019-05-30T12:26:56.616Z,102032.26
2019-05-30T12:29:25.894Z,102025.06
2019-05-30T12:31:57.529Z,102027.94
2019-05-30T12:34:26.629Z,102022.30
2019-05-30T12:36:56.409Z,102029.81
2019-05-30T12:39:25.846Z,102036.42
2019-05-30T12:41:56.799Z,102031.45
2019-05-30T12:44:26.181Z,102026.52
2019-05-30T12:46:55.609Z,102016.41
2019-05-30T12:49:25.682Z,102016.41
2019-05-30T12:51:56.155Z,102019.55
2019-05-30T12:54:25.454Z,102010.58
2019-05-30T12:56:56.552Z,102014.98
2019-05-30T12:59:25.909Z,102008.66
2019-05-30T13:01:55.235Z,102009.34
2019-05-30T13:04:24.706Z,102014.51
2019-05-30T13:06:55.866Z,102008.95
2019-05-30T13:09:25.134Z,101996.05
2019-05-30T13:11:56.369Z,102000.41
2019-05-30T13:14:25.915Z,102003.55
2019-05-30T13:16:55.648Z,102000.33
2019-05-30T13:19:25.266Z,101995.69
2019-05-30T13:21:55.410Z,101987.23
2019-05-30T13:24:24.734Z,101983.17
2019-05-30T13:26:55.586Z,101985.47
2019-05-30T13:29:25.689Z,101969.93
2019-05-30T13:31:56.249Z,101970.84
2019-05-30T13:34:25.731Z,101966.78
2019-05-30T13:36:55.128Z,101959.31
2019-05-30T13:39:24.495Z,101959.83
2019-05-30T13:41:53.949Z,101964.34
2019-05-30T13:44:23.459Z,101951.33
2019-05-30T13:46:52.781Z,101942.66
2019-05-30T13:49:22.109Z,101936.07
2019-05-30T13:51:51.715Z,101944.75
2019-05-30T13:54:21.027Z,101941.94
2019-05-30T13:56:50.379Z,101941.94
2019-05-30T13:59:19.929Z,101942.70
2019-05-30T14:01:49.251Z,101941.00
2019-05-30T14:04:18.865Z,101942.27
2019-05-30T14:06:49.970Z,101939.03
2019-05-30T14:09:19.302Z,101927.91
2019-05-30T14:11:49.248Z,101935.78
2019-05-30T14:14:19.854Z,101922.06
2019-05-30T14:16:49.139Z,101926.30
2019-05-30T14:19:18.673Z,101921.13
2019-05-30T14:21:48.561Z,101929.55
2019-05-30T14:24:17.825Z,101930.09
2019-05-30T14:26:49.096Z,101928.26
2019-05-30T14:29:18.419Z,101928.16
2019-05-30T14:31:47.723Z,101915.69
2019-05-30T14:34:17.485Z,101914.48
2019-05-30T14:36:46.830Z,101914.48
2019-05-30T14:39:16.133Z,101907.31
2019-05-30T14:41:46.063Z,101907.31
2019-05-30T14:44:15.392Z,101907.82
2019-05-30T14:46:44.679Z,101905.25
2019-05-30T14:49:14.299Z,101901.92
2019-05-30T14:51:43.599Z,101908.81
2019-05-30T14:54:13.237Z,101914.97
2019-05-30T14:56:43.253Z,101911.95
2019-05-30T14:59:13.172Z,101891.47
2019-05-30T15:01:42.398Z,101891.47
2019-05-30T15:04:13.329Z,101916.05
2019-05-30T15:06:42.749Z,101904.27
2019-05-30T15:09:22.083Z,101896.72
2019-05-30T15:11:45.710Z,101902.17
2019-05-30T15:14:15.011Z,101903.28
2019-05-30T15:16:44.335Z,101888.55
2019-05-30T15:19:14.373Z,101901.67
2019-05-30T15:21:43.839Z,101889.92
2019-05-30T15:24:14.280Z,101889.92
2019-05-30T15:26:44.256Z,101880.36
2019-05-30T15:29:14.168Z,101875.98
2019-05-30T15:31:43.460Z,101875.11
2019-05-30T15:34:13.009Z,101875.11
2019-05-30T15:36:42.350Z,101877.69
2019-05-30T15:39:11.615Z,101867.00
2019-05-30T15:41:41.054Z,101868.79
2019-05-30T15:44:11.559Z,101866.64
2019-05-30T15:46:40.861Z,101868.18
2019-05-30T15:49:10.321Z,101863.27
2019-05-30T15:51:39.686Z,101863.27
2019-05-30T15:54:09.041Z,101855.03
2019-05-30T15:56:38.663Z,101855.03
2019-05-30T15:59:07.968Z,101861.18
2019-05-30T16:01:37.270Z,101849.31
2019-05-30T16:04:06.912Z,101846.82
2019-05-30T16:06:36.219Z,101846.82
2019-05-30T16:09:07.075Z,101848.47
2019-05-30T16:11:37.136Z,101848.31
2019-05-30T16:14:06.475Z,101849.37
2019-05-30T16:16:40.247Z,101843.02
2019-05-30T16:19:19.576Z,101832.95
2019-05-30T16:21:38.018Z,101832.86
2019-05-30T16:24:07.374Z,101828.19
2019-05-30T16:26:36.914Z,101828.73
2019-05-30T16:29:06.262Z,101826.55
2019-05-30T16:31:35.587Z,101828.51
2019-05-30T16:34:05.173Z,101829.79
2019-05-30T16:36:34.520Z,101827.77
2019-05-30T16:39:04.050Z,101823.56
2019-05-30T16:41:33.512Z,101825.95
2019-05-30T16:44:02.853Z,101827.44
2019-05-30T16:46:32.184Z,101824.09
2019-05-30T16:49:01.725Z,101810.53
2019-05-30T16:51:31.032Z,101809.61
2019-05-30T16:54:00.367Z,101805.02
2019-05-30T16:56:29.845Z,101809.52
2019-05-30T16:58:59.741Z,101799.89
2019-05-30T17:01:29.100Z,101800.23
2019-05-30T17:03:58.664Z,101798.60
2019-05-30T17:06:27.998Z,101794.64
2019-05-30T17:08:57.388Z,101795.98
2019-05-30T17:11:27.036Z,101794.19
2019-05-30T17:13:56.329Z,101796.70
2019-05-30T17:16:26.269Z,101792.24
2019-05-30T17:18:56.654Z,101794.27
2019-05-30T17:21:26.789Z,101791.38
2019-05-30T17:23:56.161Z,101793.27
2019-05-30T17:26:25.690Z,101785.83
2019-05-30T17:28:54.963Z,101791.62
2019-05-30T17:31:24.267Z,101793.25
2019-05-30T17:33:53.924Z,101786.59
2019-05-30T17:36:24.177Z,101787.66
2019-05-30T17:38:53.670Z,101782.10
2019-05-30T17:41:23.133Z,101787.20
2019-05-30T17:43:52.402Z,101791.73
2019-05-30T17:46:21.745Z,101791.48
2019-05-30T17:48:51.189Z,101799.32
2019-05-30T17:51:21.809Z,101795.77
2019-05-30T17:53:51.165Z,101799.44
2019-05-30T17:56:21.947Z,101795.32
2019-05-30T17:58:51.320Z,101797.02
2019-05-30T18:01:20.681Z,101796.73
2019-05-30T18:03:50.335Z,101784.80
2019-05-30T18:06:20.371Z,101780.39
2019-05-30T18:08:49.723Z,101784.23
2019-05-30T18:11:19.262Z,101787.31
2019-05-30T18:13:48.568Z,101783.98
2019-05-30T18:16:17.828Z,101779.83
2019-05-30T18:18:47.546Z,101787.02
2019-05-30T18:21:16.854Z,101791.73
2019-05-30T18:23:46.143Z,101794.00
2019-05-30T18:26:15.810Z,101794.26
2019-05-30T18:28:45.156Z,101793.13
2019-05-30T18:31:14.472Z,101791.12
2019-05-30T18:33:43.950Z,101790.61
2019-05-30T18:36:13.254Z,101793.13
2019-05-30T18:38:42.574Z,101795.64
2019-05-30T18:41:15.824Z,101790.37
2019-05-30T18:43:43.354Z,101787.59
2019-05-30T18:46:12.664Z,101794.00
2019-05-30T18:48:42.415Z,101794.52
2019-05-30T18:51:11.953Z,101802.31
2019-05-30T18:53:41.355Z,101800.06
2019-05-30T18:56:10.871Z,101799.19
2019-05-30T18:58:40.176Z,101800.55
2019-05-30T19:01:09.510Z,101793.33
2019-05-30T19:03:39.243Z,101802.47
2019-05-30T19:06:08.622Z,101801.62
2019-05-30T19:08:37.990Z,101803.02
2019-05-30T19:11:07.489Z,101802.52
2019-05-30T19:13:37.326Z,101801.14
2019-05-30T19:16:06.720Z,101799.48
2019-05-30T19:18:36.422Z,101804.48
2019-05-30T19:21:05.826Z,101804.17
2019-05-30T19:23:38.337Z,101808.64
2019-05-30T19:26:06.830Z,101801.97
2019-05-30T19:28:36.697Z,101802.52
2019-05-30T19:31:06.071Z,101801.45
2019-05-30T19:33:35.525Z,101808.12
2019-05-30T19:36:04.832Z,101811.45
2019-05-30T19:38:35.400Z,101804.48
2019-05-30T19:41:05.286Z,101803.39
2019-05-30T19:43:35.804Z,101805.86
2019-05-30T19:46:05.249Z,101804.73
2019-05-30T19:48:34.889Z,101801.95
2019-05-30T19:51:04.196Z,101811.36
2019-05-30T19:53:33.517Z,101809.15
2019-05-30T19:56:04.232Z,101798.00
2019-05-30T19:58:33.545Z,101800.20
2019-05-30T20:01:02.857Z,101799.63
2019-05-30T20:03:40.887Z,101807.95
2019-05-30T20:06:03.321Z,101805.73
2019-05-30T20:08:47.904Z,101809.02
2019-05-30T20:11:03.899Z,101814.31
2019-05-30T20:13:33.288Z,101809.27
2019-05-30T20:16:02.565Z,101815.13
2019-05-30T20:18:32.120Z,101819.03
2019-05-30T20:21:01.487Z,101814.83
2019-05-30T20:23:45.484Z,101813.70
2019-05-30T20:26:02.461Z,101817.33
2019-05-30T20:28:32.693Z,101812.30
2019-05-30T20:31:02.047Z,101805.93
2019-05-30T20:33:31.513Z,101810.34
2019-05-30T20:36:00.827Z,101803.97
2019-05-30T20:38:30.122Z,101809.47
2019-05-30T20:40:59.670Z,101811.67
2019-05-30T20:43:29.078Z,101800.81
2019-05-30T20:45:58.406Z,101802.17
2019-05-30T20:48:27.852Z,101796.63
2019-05-30T20:50:57.198Z,101793.85
2019-05-30T20:53:26.555Z,101798.03
2019-05-30T20:55:56.215Z,101794.44
2019-05-30T20:58:25.516Z,101804.97
2019-05-30T21:00:55.894Z,101802.19
2019-05-30T21:03:25.440Z,101807.75
2019-05-30T21:05:55.532Z,101813.29
2019-05-30T21:08:24.949Z,101815.26
2019-05-30T21:10:55.923Z,101812.73
2019-05-30T21:13:25.254Z,101815.80
2019-05-30T21:15:56.620Z,101814.66
2019-05-30T21:18:28.603Z,101814.09
2019-05-30T21:20:57.960Z,101808.02
2019-05-30T21:23:27.263Z,101815.48
2019-05-30T21:25:57.425Z,101807.73
2019-05-30T21:28:26.697Z,101817.74
2019-05-30T21:30:56.034Z,101815.80
2019-05-30T21:33:25.641Z,101812.71
2019-05-30T21:35:55.114Z,101804.69
2019-05-30T21:38:24.438Z,101811.61
2019-05-30T21:40:54.037Z,101800.80
2019-05-30T21:43:23.385Z,101804.95
2019-05-30T21:45:52.667Z,101809.13
2019-05-30T21:48:22.233Z,101802.22
2019-05-30T21:50:51.584Z,101806.67
2019-05-30T21:53:20.942Z,101810.60
2019-05-30T21:55:50.507Z,101811.41
2019-05-30T21:58:19.850Z,101813.92
2019-05-30T22:01:22.212Z,101818.34
2019-05-30T22:03:51.601Z,101825.61
2019-05-30T22:06:21.055Z,101817.92
2019-05-30T22:08:51.519Z,101825.16
2019-05-30T22:11:21.566Z,101836.33
2019-05-30T22:13:52.035Z,101830.27
2019-05-30T22:16:21.522Z,101837.50
2019-05-30T22:18:52.135Z,101838.94
2019-05-30T22:21:21.663Z,101829.23
2019-05-30T22:23:52.406Z,101834.73
2019-05-30T22:26:21.971Z,101831.91
2019-05-30T22:28:52.543Z,101834.94
2019-05-30T22:31:22.383Z,101832.98
2019-05-30T22:33:53.279Z,101836.64
2019-05-30T22:36:22.716Z,101829.74
2019-05-30T22:38:53.154Z,101828.66
2019-05-30T22:41:23.141Z,101827.59
2019-05-30T22:43:52.934Z,101829.85
2019-05-30T22:46:22.581Z,101835.45
2019-05-30T22:48:52.981Z,101837.13
2019-05-30T22:51:22.403Z,101829.59
2019-05-30T22:53:53.095Z,101828.72
2019-05-30T22:56:22.774Z,101825.90
2019-05-30T22:58:52.039Z,101828.66
2019-05-30T23:01:21.538Z,101825.83
2019-05-30T23:03:52.201Z,101828.05
2019-05-30T23:06:22.474Z,101818.86
2019-05-30T23:08:52.655Z,101811.86
2019-05-30T23:11:21.980Z,101803.84
2019-05-30T23:13:51.978Z,101802.52
2019-05-30T23:16:21.549Z,101810.59
2019-05-30T23:18:50.833Z,101816.14
2019-05-30T23:21:20.133Z,101811.41
2019-05-30T23:23:51.720Z,101812.73
2019-05-30T23:26:21.106Z,101811.88
2019-05-30T23:28:51.703Z,101808.52
2019-05-30T23:31:21.365Z,101803.52
2019-05-30T23:33:50.662Z,101811.53
2019-05-30T23:36:19.945Z,101810.67
2019-05-30T23:38:50.752Z,101808.72
2019-05-30T23:41:20.111Z,101813.48
2019-05-30T23:43:59.517Z,101804.31
2019-05-30T23:46:20.605Z,101805.38
2019-05-30T23:48:49.972Z,101805.60
2019-05-30T23:51:19.293Z,101812.29
2019-05-30T23:53:50.000Z,101810.01
2019-05-30T23:56:19.455Z,101808.62
2019-05-30T23:58:48.711Z,101818.66
